sensor_id;sensor_type;location;lat;lon;timestamp;P1;durP1;ratioP1;P2;durP2;ratioP2
52268;SDS011;38224;50.950;4.100;2022-07-09T00:00:30;12.13;;;4.30;;
52268;SDS011;38224;50.950;4.100;2022-07-09T00:02:56;8.83;;;3.83;;
52268;SDS011;38224;50.950;4.100;2022-07-09T00:05:21;12.40;;;3.65;;
52268;SDS011;38224;50.950;4.100;2022-07-09T00:07:46;13.68;;;4.25;;
52268;SDS011;38224;50.950;4.100;2022-07-09T00:10:12;6.97;;;3.90;;
52268;SDS011;38224;50.950;4.100;2022-07-09T00:12:37;10.38;;;3.83;;
52268;SDS011;38224;50.950;4.100;2022-07-09T00:15:03;7.45;;;4.47;;
52268;SDS011;38224;50.950;4.100;2022-07-09T00:17:28;9.07;;;4.07;;
52268;SDS011;38224;50.950;4.100;2022-07-09T00:19:56;8.95;;;4.20;;
52268;SDS011;38224;50.950;4.100;2022-07-09T00:22:22;8.63;;;4.20;;
52268;SDS011;38224;50.950;4.100;2022-07-09T00:24:47;13.98;;;4.00;;
52268;SDS011;38224;50.950;4.100;2022-07-09T00:27:12;8.37;;;4.10;;
52268;SDS011;38224;50.950;4.100;2022-07-09T00:29:37;9.03;;;4.37;;
52268;SDS011;38224;50.950;4.100;2022-07-09T00:32:03;10.27;;;4.30;;
52268;SDS011;38224;50.950;4.100;2022-07-09T00:34:28;14.15;;;4.00;;
52268;SDS011;38224;50.950;4.100;2022-07-09T00:36:53;8.18;;;3.58;;
52268;SDS011;38224;50.950;4.100;2022-07-09T00:39:18;9.60;;;4.53;;
52268;SDS011;38224;50.950;4.100;2022-07-09T00:41:44;7.33;;;3.60;;
52268;SDS011;38224;50.950;4.100;2022-07-09T00:44:09;15.87;;;5.20;;
52268;SDS011;38224;50.950;4.100;2022-07-09T00:46:34;11.18;;;4.50;;
52268;SDS011;38224;50.950;4.100;2022-07-09T00:48:59;8.30;;;4.00;;
52268;SDS011;38224;50.950;4.100;2022-07-09T00:51:28;7.97;;;4.10;;
52268;SDS011;38224;50.950;4.100;2022-07-09T00:53:54;12.20;;;4.40;;
52268;SDS011;38224;50.950;4.100;2022-07-09T00:56:20;9.00;;;4.30;;
52268;SDS011;38224;50.950;4.100;2022-07-09T00:58:45;7.22;;;4.00;;
52268;SDS011;38224;50.950;4.100;2022-07-09T01:01:11;13.35;;;4.90;;
52268;SDS011;38224;50.950;4.100;2022-07-09T01:03:36;9.83;;;4.07;;
52268;SDS011;38224;50.950;4.100;2022-07-09T01:06:01;6.77;;;4.30;;
52268;SDS011;38224;50.950;4.100;2022-07-09T01:08:26;9.20;;;4.13;;
52268;SDS011;38224;50.950;4.100;2022-07-09T01:10:52;10.02;;;4.63;;
52268;SDS011;38224;50.950;4.100;2022-07-09T01:13:18;17.08;;;4.60;;
52268;SDS011;38224;50.950;4.100;2022-07-09T01:15:43;12.68;;;4.32;;
52268;SDS011;38224;50.950;4.100;2022-07-09T01:18:12;9.02;;;4.03;;
52268;SDS011;38224;50.950;4.100;2022-07-09T01:20:37;8.20;;;4.00;;
52268;SDS011;38224;50.950;4.100;2022-07-09T01:23:03;7.75;;;3.80;;
52268;SDS011;38224;50.950;4.100;2022-07-09T01:25:38;7.53;;;3.90;;
52268;SDS011;38224;50.950;4.100;2022-07-09T01:28:04;12.77;;;4.25;;
52268;SDS011;38224;50.950;4.100;2022-07-09T01:30:32;10.88;;;3.83;;
52268;SDS011;38224;50.950;4.100;2022-07-09T01:32:58;7.70;;;4.20;;
52268;SDS011;38224;50.950;4.100;2022-07-09T01:35:23;6.75;;;3.78;;
52268;SDS011;38224;50.950;4.100;2022-07-09T01:37:48;8.82;;;4.32;;
52268;SDS011;38224;50.950;4.100;2022-07-09T01:40:14;7.97;;;4.47;;
52268;SDS011;38224;50.950;4.100;2022-07-09T01:42:39;6.30;;;3.90;;
52268;SDS011;38224;50.950;4.100;2022-07-09T01:45:05;8.43;;;4.40;;
52268;SDS011;38224;50.950;4.100;2022-07-09T01:47:30;10.82;;;3.92;;
52268;SDS011;38224;50.950;4.100;2022-07-09T01:49:55;8.73;;;4.00;;
52268;SDS011;38224;50.950;4.100;2022-07-09T01:52:21;10.10;;;4.40;;
52268;SDS011;38224;50.950;4.100;2022-07-09T01:54:46;8.00;;;3.83;;
52268;SDS011;38224;50.950;4.100;2022-07-09T01:57:11;10.50;;;3.90;;
52268;SDS011;38224;50.950;4.100;2022-07-09T01:59:36;6.87;;;3.93;;
52268;SDS011;38224;50.950;4.100;2022-07-09T02:02:02;9.97;;;4.00;;
52268;SDS011;38224;50.950;4.100;2022-07-09T02:04:27;8.82;;;4.47;;
52268;SDS011;38224;50.950;4.100;2022-07-09T02:06:52;7.95;;;4.53;;
52268;SDS011;38224;50.950;4.100;2022-07-09T02:09:18;6.97;;;4.20;;
52268;SDS011;38224;50.950;4.100;2022-07-09T02:11:43;9.23;;;5.22;;
52268;SDS011;38224;50.950;4.100;2022-07-09T02:14:08;9.57;;;4.25;;
52268;SDS011;38224;50.950;4.100;2022-07-09T02:16:34;9.75;;;4.32;;
52268;SDS011;38224;50.950;4.100;2022-07-09T02:18:59;8.03;;;4.33;;
52268;SDS011;38224;50.950;4.100;2022-07-09T02:21:24;9.53;;;4.00;;
52268;SDS011;38224;50.950;4.100;2022-07-09T02:23:49;11.50;;;4.17;;
52268;SDS011;38224;50.950;4.100;2022-07-09T02:26:15;5.53;;;3.97;;
52268;SDS011;38224;50.950;4.100;2022-07-09T02:28:40;11.80;;;3.97;;
52268;SDS011;38224;50.950;4.100;2022-07-09T02:31:06;6.35;;;3.65;;
52268;SDS011;38224;50.950;4.100;2022-07-09T02:33:31;6.00;;;3.97;;
52268;SDS011;38224;50.950;4.100;2022-07-09T02:35:57;7.25;;;4.30;;
52268;SDS011;38224;50.950;4.100;2022-07-09T02:38:22;8.83;;;4.53;;
52268;SDS011;38224;50.950;4.100;2022-07-09T02:40:47;11.20;;;4.93;;
52268;SDS011;38224;50.950;4.100;2022-07-09T02:43:13;12.23;;;5.13;;
52268;SDS011;38224;50.950;4.100;2022-07-09T02:45:38;6.45;;;3.83;;
52268;SDS011;38224;50.950;4.100;2022-07-09T02:48:03;8.20;;;4.20;;
52268;SDS011;38224;50.950;4.100;2022-07-09T02:50:29;7.40;;;4.13;;
52268;SDS011;38224;50.950;4.100;2022-07-09T02:52:54;9.97;;;4.80;;
52268;SDS011;38224;50.950;4.100;2022-07-09T02:55:19;9.17;;;5.20;;
52268;SDS011;38224;50.950;4.100;2022-07-09T02:57:44;7.90;;;5.43;;
52268;SDS011;38224;50.950;4.100;2022-07-09T03:00:10;11.27;;;6.10;;
52268;SDS011;38224;50.950;4.100;2022-07-09T03:02:35;9.77;;;6.03;;
52268;SDS011;38224;50.950;4.100;2022-07-09T03:05:01;8.77;;;5.47;;
52268;SDS011;38224;50.950;4.100;2022-07-09T03:07:26;8.98;;;6.00;;
52268;SDS011;38224;50.950;4.100;2022-07-09T03:09:51;9.98;;;5.50;;
52268;SDS011;38224;50.950;4.100;2022-07-09T03:12:16;8.60;;;5.40;;
52268;SDS011;38224;50.950;4.100;2022-07-09T03:14:42;12.23;;;6.25;;
52268;SDS011;38224;50.950;4.100;2022-07-09T03:17:07;9.40;;;7.00;;
52268;SDS011;38224;50.950;4.100;2022-07-09T03:19:32;9.45;;;5.82;;
52268;SDS011;38224;50.950;4.100;2022-07-09T03:21:58;14.52;;;7.03;;
52268;SDS011;38224;50.950;4.100;2022-07-09T03:24:23;12.55;;;7.85;;
52268;SDS011;38224;50.950;4.100;2022-07-09T03:26:48;10.85;;;6.88;;
52268;SDS011;38224;50.950;4.100;2022-07-09T03:29:14;12.93;;;7.90;;
52268;SDS011;38224;50.950;4.100;2022-07-09T03:31:39;9.90;;;7.25;;
52268;SDS011;38224;50.950;4.100;2022-07-09T03:34:04;12.33;;;7.67;;
52268;SDS011;38224;50.950;4.100;2022-07-09T03:36:30;15.68;;;8.88;;
52268;SDS011;38224;50.950;4.100;2022-07-09T03:38:56;19.85;;;13.18;;
52268;SDS011;38224;50.950;4.100;2022-07-09T03:41:21;15.53;;;12.57;;
52268;SDS011;38224;50.950;4.100;2022-07-09T03:43:46;18.77;;;11.57;;
52268;SDS011;38224;50.950;4.100;2022-07-09T03:46:11;16.10;;;11.38;;
52268;SDS011;38224;50.950;4.100;2022-07-09T03:48:37;17.05;;;10.27;;
52268;SDS011;38224;50.950;4.100;2022-07-09T03:51:02;13.30;;;10.00;;
52268;SDS011;38224;50.950;4.100;2022-07-09T03:53:27;12.07;;;8.77;;
52268;SDS011;38224;50.950;4.100;2022-07-09T03:55:53;14.70;;;9.37;;
52268;SDS011;38224;50.950;4.100;2022-07-09T03:58:18;17.57;;;10.10;;
52268;SDS011;38224;50.950;4.100;2022-07-09T04:00:43;16.53;;;9.33;;
52268;SDS011;38224;50.950;4.100;2022-07-09T04:03:08;15.50;;;10.43;;
52268;SDS011;38224;50.950;4.100;2022-07-09T04:05:34;15.07;;;9.90;;
52268;SDS011;38224;50.950;4.100;2022-07-09T04:07:59;17.10;;;10.40;;
52268;SDS011;38224;50.950;4.100;2022-07-09T04:10:24;13.00;;;10.03;;
52268;SDS011;38224;50.950;4.100;2022-07-09T04:12:49;17.47;;;10.50;;
52268;SDS011;38224;50.950;4.100;2022-07-09T04:15:14;17.70;;;10.50;;
52268;SDS011;38224;50.950;4.100;2022-07-09T04:17:40;14.25;;;10.48;;
52268;SDS011;38224;50.950;4.100;2022-07-09T04:20:05;17.98;;;11.48;;
52268;SDS011;38224;50.950;4.100;2022-07-09T04:22:31;20.63;;;11.93;;
52268;SDS011;38224;50.950;4.100;2022-07-09T04:24:56;22.90;;;12.27;;
52268;SDS011;38224;50.950;4.100;2022-07-09T04:27:21;22.02;;;11.65;;
52268;SDS011;38224;50.950;4.100;2022-07-09T04:29:46;24.75;;;11.05;;
52268;SDS011;38224;50.950;4.100;2022-07-09T04:32:12;59.35;;;12.10;;
52268;SDS011;38224;50.950;4.100;2022-07-09T04:34:38;12.85;;;9.05;;
52268;SDS011;38224;50.950;4.100;2022-07-09T04:37:03;15.55;;;9.43;;
52268;SDS011;38224;50.950;4.100;2022-07-09T04:39:28;17.38;;;9.18;;
52268;SDS011;38224;50.950;4.100;2022-07-09T04:41:53;16.63;;;8.57;;
52268;SDS011;38224;50.950;4.100;2022-07-09T04:44:19;24.30;;;10.00;;
52268;SDS011;38224;50.950;4.100;2022-07-09T04:46:44;23.07;;;13.67;;
52268;SDS011;38224;50.950;4.100;2022-07-09T04:49:09;33.63;;;11.13;;
52268;SDS011;38224;50.950;4.100;2022-07-09T04:51:35;14.27;;;9.93;;
52268;SDS011;38224;50.950;4.100;2022-07-09T04:54:00;20.25;;;11.23;;
52268;SDS011;38224;50.950;4.100;2022-07-09T04:56:25;12.93;;;9.57;;
52268;SDS011;38224;50.950;4.100;2022-07-09T04:58:51;16.70;;;9.27;;
52268;SDS011;38224;50.950;4.100;2022-07-09T05:01:25;14.27;;;8.82;;
52268;SDS011;38224;50.950;4.100;2022-07-09T05:03:51;15.35;;;9.10;;
52268;SDS011;38224;50.950;4.100;2022-07-09T05:06:17;11.02;;;8.48;;
52268;SDS011;38224;50.950;4.100;2022-07-09T05:08:43;17.45;;;9.00;;
52268;SDS011;38224;50.950;4.100;2022-07-09T05:11:08;10.00;;;7.75;;
52268;SDS011;38224;50.950;4.100;2022-07-09T05:13:35;18.83;;;8.45;;
52268;SDS011;38224;50.950;4.100;2022-07-09T05:16:00;19.55;;;8.32;;
52268;SDS011;38224;50.950;4.100;2022-07-09T05:18:25;11.27;;;7.97;;
52268;SDS011;38224;50.950;4.100;2022-07-09T05:20:51;17.55;;;8.40;;
52268;SDS011;38224;50.950;4.100;2022-07-09T05:23:16;18.70;;;8.63;;
52268;SDS011;38224;50.950;4.100;2022-07-09T05:25:42;20.75;;;8.45;;
52268;SDS011;38224;50.950;4.100;2022-07-09T05:28:07;15.38;;;8.00;;
52268;SDS011;38224;50.950;4.100;2022-07-09T05:30:33;14.93;;;8.50;;
52268;SDS011;38224;50.950;4.100;2022-07-09T05:33:02;15.25;;;9.43;;
52268;SDS011;38224;50.950;4.100;2022-07-09T05:35:28;18.25;;;10.48;;
52268;SDS011;38224;50.950;4.100;2022-07-09T05:37:53;15.32;;;9.10;;
52268;SDS011;38224;50.950;4.100;2022-07-09T05:40:18;18.10;;;8.90;;
52268;SDS011;38224;50.950;4.100;2022-07-09T05:42:43;91.13;;;11.83;;
52268;SDS011;38224;50.950;4.100;2022-07-09T05:45:09;13.87;;;7.20;;
52268;SDS011;38224;50.950;4.100;2022-07-09T05:47:34;14.18;;;7.43;;
52268;SDS011;38224;50.950;4.100;2022-07-09T05:50:00;11.95;;;7.43;;
52268;SDS011;38224;50.950;4.100;2022-07-09T05:52:25;17.50;;;7.70;;
52268;SDS011;38224;50.950;4.100;2022-07-09T05:54:50;16.17;;;8.17;;
52268;SDS011;38224;50.950;4.100;2022-07-09T05:57:15;14.30;;;6.80;;
52268;SDS011;38224;50.950;4.100;2022-07-09T05:59:41;14.27;;;7.80;;
52268;SDS011;38224;50.950;4.100;2022-07-09T06:02:06;16.37;;;7.03;;
52268;SDS011;38224;50.950;4.100;2022-07-09T06:04:31;15.15;;;6.80;;
52268;SDS011;38224;50.950;4.100;2022-07-09T06:06:57;14.23;;;7.00;;
52268;SDS011;38224;50.950;4.100;2022-07-09T06:09:22;11.27;;;5.93;;
52268;SDS011;38224;50.950;4.100;2022-07-09T06:11:47;12.88;;;6.43;;
52268;SDS011;38224;50.950;4.100;2022-07-09T06:14:12;11.77;;;5.67;;
52268;SDS011;38224;50.950;4.100;2022-07-09T06:16:38;10.80;;;6.03;;
52268;SDS011;38224;50.950;4.100;2022-07-09T06:19:03;18.70;;;6.23;;
52268;SDS011;38224;50.950;4.100;2022-07-09T06:21:28;12.87;;;6.20;;
52268;SDS011;38224;50.950;4.100;2022-07-09T06:23:54;10.00;;;6.65;;
52268;SDS011;38224;50.950;4.100;2022-07-09T06:26:19;12.97;;;6.07;;
52268;SDS011;38224;50.950;4.100;2022-07-09T06:28:44;18.33;;;6.60;;
52268;SDS011;38224;50.950;4.100;2022-07-09T06:31:11;18.35;;;6.28;;
52268;SDS011;38224;50.950;4.100;2022-07-09T06:33:36;15.37;;;6.27;;
52268;SDS011;38224;50.950;4.100;2022-07-09T06:36:01;12.50;;;5.77;;
52268;SDS011;38224;50.950;4.100;2022-07-09T06:38:27;10.32;;;5.82;;
52268;SDS011;38224;50.950;4.100;2022-07-09T06:40:54;11.43;;;5.97;;
52268;SDS011;38224;50.950;4.100;2022-07-09T06:43:19;12.43;;;5.47;;
52268;SDS011;38224;50.950;4.100;2022-07-09T06:45:44;9.73;;;6.27;;
52268;SDS011;38224;50.950;4.100;2022-07-09T06:48:09;9.43;;;4.93;;
52268;SDS011;38224;50.950;4.100;2022-07-09T06:50:35;10.80;;;5.93;;
52268;SDS011;38224;50.950;4.100;2022-07-09T06:53:00;11.53;;;5.37;;
52268;SDS011;38224;50.950;4.100;2022-07-09T06:55:25;17.30;;;5.73;;
52268;SDS011;38224;50.950;4.100;2022-07-09T06:57:50;14.37;;;6.30;;
52268;SDS011;38224;50.950;4.100;2022-07-09T07:00:16;11.30;;;6.10;;
52268;SDS011;38224;50.950;4.100;2022-07-09T07:02:41;10.77;;;5.35;;
52268;SDS011;38224;50.950;4.100;2022-07-09T07:05:06;11.33;;;5.93;;
52268;SDS011;38224;50.950;4.100;2022-07-09T07:07:32;12.77;;;5.47;;
52268;SDS011;38224;50.950;4.100;2022-07-09T07:09:57;12.07;;;6.10;;
52268;SDS011;38224;50.950;4.100;2022-07-09T07:12:22;11.97;;;6.27;;
52268;SDS011;38224;50.950;4.100;2022-07-09T07:14:48;9.73;;;5.25;;
52268;SDS011;38224;50.950;4.100;2022-07-09T07:17:13;10.38;;;4.68;;
52268;SDS011;38224;50.950;4.100;2022-07-09T07:19:39;12.57;;;5.10;;
52268;SDS011;38224;50.950;4.100;2022-07-09T07:22:04;9.13;;;5.85;;
52268;SDS011;38224;50.950;4.100;2022-07-09T07:24:29;17.20;;;5.88;;
52268;SDS011;38224;50.950;4.100;2022-07-09T07:26:56;12.32;;;6.55;;
52268;SDS011;38224;50.950;4.100;2022-07-09T07:29:21;13.85;;;6.88;;
52268;SDS011;38224;50.950;4.100;2022-07-09T07:31:46;11.18;;;6.75;;
52268;SDS011;38224;50.950;4.100;2022-07-09T07:34:12;12.03;;;8.00;;
52268;SDS011;38224;50.950;4.100;2022-07-09T07:36:37;26.30;;;8.82;;
52268;SDS011;38224;50.950;4.100;2022-07-09T07:39:03;22.30;;;8.93;;
52268;SDS011;38224;50.950;4.100;2022-07-09T07:41:28;16.05;;;8.98;;
52268;SDS011;38224;50.950;4.100;2022-07-09T07:43:53;12.15;;;9.25;;
52268;SDS011;38224;50.950;4.100;2022-07-09T07:46:19;14.80;;;9.63;;
52268;SDS011;38224;50.950;4.100;2022-07-09T07:48:44;15.03;;;9.17;;
52268;SDS011;38224;50.950;4.100;2022-07-09T07:51:09;15.70;;;9.13;;
52268;SDS011;38224;50.950;4.100;2022-07-09T07:53:35;17.98;;;8.55;;
52268;SDS011;38224;50.950;4.100;2022-07-09T07:56:00;10.10;;;8.13;;
52268;SDS011;38224;50.950;4.100;2022-07-09T07:58:26;19.83;;;8.27;;
52268;SDS011;38224;50.950;4.100;2022-07-09T08:00:51;13.77;;;8.17;;
52268;SDS011;38224;50.950;4.100;2022-07-09T08:03:16;10.13;;;7.60;;
52268;SDS011;38224;50.950;4.100;2022-07-09T08:05:42;15.77;;;7.20;;
52268;SDS011;38224;50.950;4.100;2022-07-09T08:08:07;12.53;;;7.73;;
52268;SDS011;38224;50.950;4.100;2022-07-09T08:10:32;15.57;;;7.70;;
52268;SDS011;38224;50.950;4.100;2022-07-09T08:12:57;12.67;;;7.50;;
52268;SDS011;38224;50.950;4.100;2022-07-09T08:15:23;18.23;;;7.95;;
52268;SDS011;38224;50.950;4.100;2022-07-09T08:17:48;13.37;;;8.40;;
52268;SDS011;38224;50.950;4.100;2022-07-09T08:20:13;11.18;;;7.32;;
52268;SDS011;38224;50.950;4.100;2022-07-09T08:22:39;10.23;;;7.57;;
52268;SDS011;38224;50.950;4.100;2022-07-09T08:25:04;13.55;;;7.47;;
52268;SDS011;38224;50.950;4.100;2022-07-09T08:27:29;15.65;;;8.13;;
52268;SDS011;38224;50.950;4.100;2022-07-09T08:29:55;14.15;;;8.48;;
52268;SDS011;38224;50.950;4.100;2022-07-09T08:32:20;13.37;;;8.80;;
52268;SDS011;38224;50.950;4.100;2022-07-09T08:34:46;15.18;;;10.18;;
52268;SDS011;38224;50.950;4.100;2022-07-09T08:37:11;17.57;;;12.77;;
52268;SDS011;38224;50.950;4.100;2022-07-09T08:39:36;26.88;;;14.93;;
52268;SDS011;38224;50.950;4.100;2022-07-09T08:42:01;16.77;;;13.50;;
52268;SDS011;38224;50.950;4.100;2022-07-09T08:44:29;19.98;;;12.82;;
52268;SDS011;38224;50.950;4.100;2022-07-09T08:46:56;90.03;;;19.77;;
52268;SDS011;38224;50.950;4.100;2022-07-09T08:49:21;36.55;;;16.30;;
52268;SDS011;38224;50.950;4.100;2022-07-09T08:51:47;39.47;;;17.25;;
52268;SDS011;38224;50.950;4.100;2022-07-09T08:54:14;21.65;;;17.63;;
52268;SDS011;38224;50.950;4.100;2022-07-09T08:56:40;32.55;;;18.05;;
52268;SDS011;38224;50.950;4.100;2022-07-09T08:59:05;62.77;;;20.23;;
52268;SDS011;38224;50.950;4.100;2022-07-09T09:01:30;23.53;;;20.10;;
52268;SDS011;38224;50.950;4.100;2022-07-09T09:03:55;25.33;;;18.83;;
52268;SDS011;38224;50.950;4.100;2022-07-09T09:06:21;24.25;;;19.77;;
52268;SDS011;38224;50.950;4.100;2022-07-09T09:08:47;23.48;;;18.17;;
52268;SDS011;38224;50.950;4.100;2022-07-09T09:11:13;23.15;;;18.15;;
52268;SDS011;38224;50.950;4.100;2022-07-09T09:13:42;25.85;;;19.05;;
52268;SDS011;38224;50.950;4.100;2022-07-09T09:16:09;27.17;;;19.77;;
52268;SDS011;38224;50.950;4.100;2022-07-09T09:18:44;25.10;;;20.73;;
52268;SDS011;38224;50.950;4.100;2022-07-09T09:21:10;24.13;;;19.60;;
52268;SDS011;38224;50.950;4.100;2022-07-09T09:26:11;23.92;;;18.40;;
52268;SDS011;38224;50.950;4.100;2022-07-09T09:31:02;26.60;;;20.67;;
52268;SDS011;38224;50.950;4.100;2022-07-09T09:33:27;25.70;;;18.97;;
52268;SDS011;38224;50.950;4.100;2022-07-09T09:35:52;24.17;;;18.50;;
52268;SDS011;38224;50.950;4.100;2022-07-09T09:38:24;25.93;;;17.67;;
52268;SDS011;38224;50.950;4.100;2022-07-09T09:40:54;23.48;;;18.27;;
52268;SDS011;38224;50.950;4.100;2022-07-09T09:43:19;91.88;;;20.67;;
52268;SDS011;38224;50.950;4.100;2022-07-09T09:45:47;25.23;;;16.70;;
52268;SDS011;38224;50.950;4.100;2022-07-09T09:48:12;30.67;;;17.63;;
52268;SDS011;38224;50.950;4.100;2022-07-09T09:50:39;22.75;;;15.95;;
52268;SDS011;38224;50.950;4.100;2022-07-09T09:53:04;18.97;;;13.90;;
52268;SDS011;38224;50.950;4.100;2022-07-09T09:55:30;21.20;;;14.65;;
52268;SDS011;38224;50.950;4.100;2022-07-09T09:57:55;21.35;;;13.70;;
52268;SDS011;38224;50.950;4.100;2022-07-09T10:00:20;17.55;;;12.88;;
52268;SDS011;38224;50.950;4.100;2022-07-09T10:02:46;24.20;;;11.27;;
52268;SDS011;38224;50.950;4.100;2022-07-09T10:05:12;14.73;;;9.95;;
52268;SDS011;38224;50.950;4.100;2022-07-09T10:07:38;25.55;;;9.88;;
52268;SDS011;38224;50.950;4.100;2022-07-09T10:10:04;27.83;;;9.90;;
52268;SDS011;38224;50.950;4.100;2022-07-09T10:12:32;14.95;;;7.50;;
52268;SDS011;38224;50.950;4.100;2022-07-09T10:14:57;10.32;;;6.18;;
52268;SDS011;38224;50.950;4.100;2022-07-09T10:17:23;16.60;;;5.77;;
52268;SDS011;38224;50.950;4.100;2022-07-09T10:19:52;9.50;;;5.18;;
52268;SDS011;38224;50.950;4.100;2022-07-09T10:22:21;18.27;;;4.60;;
52268;SDS011;38224;50.950;4.100;2022-07-09T10:24:49;65.40;;;6.10;;
52268;SDS011;38224;50.950;4.100;2022-07-09T10:27:14;5.70;;;2.25;;
52268;SDS011;38224;50.950;4.100;2022-07-09T10:29:53;10.13;;;2.88;;
52268;SDS011;38224;50.950;4.100;2022-07-09T10:32:26;5.40;;;2.45;;
52268;SDS011;38224;50.950;4.100;2022-07-09T10:35:02;5.47;;;2.47;;
52268;SDS011;38224;50.950;4.100;2022-07-09T10:37:43;6.63;;;2.40;;
52268;SDS011;38224;50.950;4.100;2022-07-09T10:42:34;5.18;;;1.65;;
52268;SDS011;38224;50.950;4.100;2022-07-09T10:44:59;2.65;;;1.80;;
52268;SDS011;38224;50.950;4.100;2022-07-09T10:47:25;7.43;;;2.42;;
52268;SDS011;38224;50.950;4.100;2022-07-09T10:50:04;4.45;;;1.63;;
52268;SDS011;38224;50.950;4.100;2022-07-09T10:52:30;6.13;;;1.98;;
52268;SDS011;38224;50.950;4.100;2022-07-09T10:54:55;5.75;;;2.00;;
52268;SDS011;38224;50.950;4.100;2022-07-09T10:57:21;128.00;;;7.97;;
52268;SDS011;38224;50.950;4.100;2022-07-09T10:59:46;9.45;;;1.70;;
52268;SDS011;38224;50.950;4.100;2022-07-09T11:02:18;2.60;;;2.05;;
52268;SDS011;38224;50.950;4.100;2022-07-09T11:04:47;6.65;;;1.92;;
52268;SDS011;38224;50.950;4.100;2022-07-09T11:07:18;10.95;;;2.17;;
52268;SDS011;38224;50.950;4.100;2022-07-09T11:09:43;64.57;;;5.13;;
52268;SDS011;38224;50.950;4.100;2022-07-09T11:12:08;57.00;;;3.80;;
52268;SDS011;38224;50.950;4.100;2022-07-09T11:14:42;2.65;;;1.35;;
52268;SDS011;38224;50.950;4.100;2022-07-09T11:17:07;4.15;;;1.40;;
52268;SDS011;38224;50.950;4.100;2022-07-09T11:19:32;8.53;;;1.70;;
52268;SDS011;38224;50.950;4.100;2022-07-09T11:22:01;4.77;;;1.40;;
52268;SDS011;38224;50.950;4.100;2022-07-09T11:24:27;6.07;;;1.35;;
52268;SDS011;38224;50.950;4.100;2022-07-09T11:26:54;4.80;;;1.27;;
52268;SDS011;38224;50.950;4.100;2022-07-09T11:29:19;3.72;;;1.23;;
52268;SDS011;38224;50.950;4.100;2022-07-09T11:31:48;2.60;;;1.30;;
52268;SDS011;38224;50.950;4.100;2022-07-09T11:34:14;9.35;;;1.10;;
52268;SDS011;38224;50.950;4.100;2022-07-09T11:36:43;45.03;;;4.53;;
52268;SDS011;38224;50.950;4.100;2022-07-09T11:39:09;4.88;;;1.20;;
52268;SDS011;38224;50.950;4.100;2022-07-09T11:41:41;8.65;;;1.15;;
52268;SDS011;38224;50.950;4.100;2022-07-09T11:44:07;26.58;;;1.95;;
52268;SDS011;38224;50.950;4.100;2022-07-09T11:46:32;3.08;;;1.08;;
52268;SDS011;38224;50.950;4.100;2022-07-09T11:48:57;4.73;;;1.60;;
52268;SDS011;38224;50.950;4.100;2022-07-09T11:51:33;3.70;;;1.20;;
52268;SDS011;38224;50.950;4.100;2022-07-09T11:53:59;3.58;;;1.30;;
52268;SDS011;38224;50.950;4.100;2022-07-09T11:56:24;45.20;;;2.95;;
52268;SDS011;38224;50.950;4.100;2022-07-09T11:58:50;4.97;;;1.53;;
52268;SDS011;38224;50.950;4.100;2022-07-09T12:01:15;8.85;;;1.23;;
52268;SDS011;38224;50.950;4.100;2022-07-09T12:03:46;4.63;;;1.13;;
52268;SDS011;38224;50.950;4.100;2022-07-09T12:06:12;21.10;;;1.80;;
52268;SDS011;38224;50.950;4.100;2022-07-09T12:08:38;8.20;;;1.60;;
52268;SDS011;38224;50.950;4.100;2022-07-09T12:11:04;23.33;;;2.75;;
52268;SDS011;38224;50.950;4.100;2022-07-09T12:13:29;6.47;;;1.70;;
52268;SDS011;38224;50.950;4.100;2022-07-09T12:15:54;16.20;;;2.07;;
52268;SDS011;38224;50.950;4.100;2022-07-09T12:18:20;10.13;;;1.63;;
52268;SDS011;38224;50.950;4.100;2022-07-09T12:20:46;3.22;;;1.25;;
52268;SDS011;38224;50.950;4.100;2022-07-09T12:23:11;60.73;;;4.70;;
52268;SDS011;38224;50.950;4.100;2022-07-09T12:25:37;4.88;;;1.23;;
52268;SDS011;38224;50.950;4.100;2022-07-09T12:28:02;10.03;;;1.50;;
52268;SDS011;38224;50.950;4.100;2022-07-09T12:30:27;5.68;;;1.30;;
52268;SDS011;38224;50.950;4.100;2022-07-09T12:32:54;6.30;;;0.95;;
52268;SDS011;38224;50.950;4.100;2022-07-09T12:35:20;5.05;;;1.10;;
52268;SDS011;38224;50.950;4.100;2022-07-09T12:37:46;9.87;;;1.13;;
52268;SDS011;38224;50.950;4.100;2022-07-09T12:40:11;4.00;;;1.00;;
52268;SDS011;38224;50.950;4.100;2022-07-09T12:42:37;6.68;;;1.85;;
52268;SDS011;38224;50.950;4.100;2022-07-09T12:45:02;2.75;;;1.00;;
52268;SDS011;38224;50.950;4.100;2022-07-09T12:47:28;4.45;;;0.70;;
52268;SDS011;38224;50.950;4.100;2022-07-09T12:49:53;30.43;;;2.43;;
52268;SDS011;38224;50.950;4.100;2022-07-09T12:52:18;5.27;;;1.23;;
52268;SDS011;38224;50.950;4.100;2022-07-09T12:54:43;3.37;;;1.23;;
52268;SDS011;38224;50.950;4.100;2022-07-09T12:57:09;5.88;;;1.58;;
52268;SDS011;38224;50.950;4.100;2022-07-09T12:59:35;3.03;;;0.90;;
52268;SDS011;38224;50.950;4.100;2022-07-09T13:02:00;2.53;;;0.90;;
52268;SDS011;38224;50.950;4.100;2022-07-09T13:04:25;2.90;;;1.03;;
52268;SDS011;38224;50.950;4.100;2022-07-09T13:06:50;13.57;;;1.10;;
52268;SDS011;38224;50.950;4.100;2022-07-09T13:09:16;4.85;;;0.98;;
52268;SDS011;38224;50.950;4.100;2022-07-09T13:11:41;4.55;;;0.93;;
52268;SDS011;38224;50.950;4.100;2022-07-09T13:14:07;3.33;;;1.07;;
52268;SDS011;38224;50.950;4.100;2022-07-09T13:16:34;7.70;;;1.27;;
52268;SDS011;38224;50.950;4.100;2022-07-09T13:18:59;3.20;;;1.10;;
52268;SDS011;38224;50.950;4.100;2022-07-09T13:21:24;7.63;;;1.57;;
52268;SDS011;38224;50.950;4.100;2022-07-09T13:23:50;8.27;;;1.37;;
52268;SDS011;38224;50.950;4.100;2022-07-09T13:26:15;7.95;;;1.00;;
52268;SDS011;38224;50.950;4.100;2022-07-09T13:28:41;5.78;;;1.25;;
52268;SDS011;38224;50.950;4.100;2022-07-09T13:31:06;3.67;;;1.00;;
52268;SDS011;38224;50.950;4.100;2022-07-09T13:33:32;1.83;;;0.80;;
52268;SDS011;38224;50.950;4.100;2022-07-09T13:35:58;3.22;;;1.10;;
52268;SDS011;38224;50.950;4.100;2022-07-09T13:38:23;5.20;;;0.95;;
52268;SDS011;38224;50.950;4.100;2022-07-09T13:40:49;5.00;;;1.10;;
52268;SDS011;38224;50.950;4.100;2022-07-09T13:43:14;3.83;;;1.20;;
52268;SDS011;38224;50.950;4.100;2022-07-09T13:45:39;4.50;;;1.70;;
52268;SDS011;38224;50.950;4.100;2022-07-09T13:48:04;4.80;;;1.17;;
52268;SDS011;38224;50.950;4.100;2022-07-09T13:50:30;4.28;;;1.10;;
52268;SDS011;38224;50.950;4.100;2022-07-09T13:52:55;4.30;;;1.20;;
52268;SDS011;38224;50.950;4.100;2022-07-09T13:55:20;4.13;;;1.00;;
52268;SDS011;38224;50.950;4.100;2022-07-09T13:57:45;10.13;;;1.47;;
52268;SDS011;38224;50.950;4.100;2022-07-09T14:00:11;5.37;;;1.17;;
52268;SDS011;38224;50.950;4.100;2022-07-09T14:02:36;5.53;;;1.13;;
52268;SDS011;38224;50.950;4.100;2022-07-09T14:05:02;3.50;;;1.10;;
52268;SDS011;38224;50.950;4.100;2022-07-09T14:07:28;8.25;;;1.17;;
52268;SDS011;38224;50.950;4.100;2022-07-09T14:09:53;5.35;;;1.20;;
52268;SDS011;38224;50.950;4.100;2022-07-09T14:12:18;6.30;;;0.90;;
52268;SDS011;38224;50.950;4.100;2022-07-09T14:14:44;7.65;;;1.08;;
52268;SDS011;38224;50.950;4.100;2022-07-09T14:17:09;6.18;;;1.35;;
52268;SDS011;38224;50.950;4.100;2022-07-09T14:19:35;1.75;;;1.20;;
52268;SDS011;38224;50.950;4.100;2022-07-09T14:22:00;7.03;;;1.33;;
52268;SDS011;38224;50.950;4.100;2022-07-09T14:24:26;3.25;;;1.00;;
52268;SDS011;38224;50.950;4.100;2022-07-09T14:26:51;2.38;;;1.17;;
52268;SDS011;38224;50.950;4.100;2022-07-09T14:29:16;9.30;;;2.03;;
52268;SDS011;38224;50.950;4.100;2022-07-09T14:31:42;6.53;;;1.02;;
52268;SDS011;38224;50.950;4.100;2022-07-09T14:34:07;4.65;;;1.35;;
52268;SDS011;38224;50.950;4.100;2022-07-09T14:36:32;10.80;;;2.10;;